sensor_id;sensor_type;location;lat;lon;timestamp;P1;durP1;ratioP1;P2;durP2;ratioP2
72557;SDS011;60583;50.094;8.748;2024-03-06T00:02:40;14.40;;;9.90;;
72557;SDS011;60583;50.094;8.748;2024-03-06T00:05:24;12.32;;;8.57;;
72557;SDS011;60583;50.094;8.748;2024-03-06T00:08:08;13.55;;;8.27;;
72557;SDS011;60583;50.094;8.748;2024-03-06T00:10:52;14.52;;;8.98;;
72557;SDS011;60583;50.094;8.748;2024-03-06T00:13:36;13.90;;;8.30;;
72557;SDS011;60583;50.094;8.748;2024-03-06T00:16:21;13.20;;;7.10;;
72557;SDS011;60583;50.094;8.748;2024-03-06T00:19:05;12.82;;;7.90;;
72557;SDS011;60583;50.094;8.748;2024-03-06T00:21:49;12.68;;;8.07;;
72557;SDS011;60583;50.094;8.748;2024-03-06T00:24:33;11.88;;;7.32;;
72557;SDS011;60583;50.094;8.748;2024-03-06T00:27:17;12.23;;;7.05;;
72557;SDS011;60583;50.094;8.748;2024-03-06T00:30:01;12.48;;;7.28;;
72557;SDS011;60583;50.094;8.748;2024-03-06T00:32:45;9.80;;;6.25;;
72557;SDS011;60583;50.094;8.748;2024-03-06T00:35:29;12.63;;;7.43;;
72557;SDS011;60583;50.094;8.748;2024-03-06T00:38:13;11.38;;;6.82;;
72557;SDS011;60583;50.094;8.748;2024-03-06T00:40:57;11.70;;;7.65;;
72557;SDS011;60583;50.094;8.748;2024-03-06T00:43:41;10.82;;;6.72;;
72557;SDS011;60583;50.094;8.748;2024-03-06T00:46:25;13.73;;;7.20;;
72557;SDS011;60583;50.094;8.748;2024-03-06T00:49:10;11.50;;;7.28;;
72557;SDS011;60583;50.094;8.748;2024-03-06T00:51:54;12.02;;;6.88;;
72557;SDS011;60583;50.094;8.748;2024-03-06T00:54:38;11.95;;;7.43;;
72557;SDS011;60583;50.094;8.748;2024-03-06T00:57:22;12.65;;;6.80;;
72557;SDS011;60583;50.094;8.748;2024-03-06T01:00:06;13.77;;;7.05;;
72557;SDS011;60583;50.094;8.748;2024-03-06T01:02:57;11.48;;;6.95;;
72557;SDS011;60583;50.094;8.748;2024-03-06T01:05:41;12.60;;;7.32;;
72557;SDS011;60583;50.094;8.748;2024-03-06T01:08:25;11.88;;;7.43;;
72557;SDS011;60583;50.094;8.748;2024-03-06T01:11:11;10.82;;;7.15;;
72557;SDS011;60583;50.094;8.748;2024-03-06T01:13:57;10.70;;;7.22;;
72557;SDS011;60583;50.094;8.748;2024-03-06T01:16:41;10.25;;;6.32;;
72557;SDS011;60583;50.094;8.748;2024-03-06T01:19:25;10.43;;;7.15;;
72557;SDS011;60583;50.094;8.748;2024-03-06T01:22:10;10.40;;;7.13;;
72557;SDS011;60583;50.094;8.748;2024-03-06T01:24:54;13.27;;;7.97;;
72557;SDS011;60583;50.094;8.748;2024-03-06T01:27:38;11.90;;;7.85;;
72557;SDS011;60583;50.094;8.748;2024-03-06T01:30:22;13.15;;;8.05;;
72557;SDS011;60583;50.094;8.748;2024-03-06T01:33:06;12.38;;;7.88;;
72557;SDS011;60583;50.094;8.748;2024-03-06T01:35:50;10.50;;;6.63;;
72557;SDS011;60583;50.094;8.748;2024-03-06T01:38:34;12.38;;;7.18;;
72557;SDS011;60583;50.094;8.748;2024-03-06T01:41:18;12.10;;;6.95;;
72557;SDS011;60583;50.094;8.748;2024-03-06T01:44:02;12.57;;;6.57;;
72557;SDS011;60583;50.094;8.748;2024-03-06T01:46:47;10.02;;;6.38;;
72557;SDS011;60583;50.094;8.748;2024-03-06T01:49:31;10.00;;;6.95;;
72557;SDS011;60583;50.094;8.748;2024-03-06T01:52:15;11.25;;;6.15;;
72557;SDS011;60583;50.094;8.748;2024-03-06T01:55:01;11.10;;;6.78;;
72557;SDS011;60583;50.094;8.748;2024-03-06T01:57:46;12.15;;;6.53;;
72557;SDS011;60583;50.094;8.748;2024-03-06T02:00:30;11.38;;;6.85;;
72557;SDS011;60583;50.094;8.748;2024-03-06T02:03:14;10.38;;;6.25;;
72557;SDS011;60583;50.094;8.748;2024-03-06T02:05:58;11.55;;;6.47;;
72557;SDS011;60583;50.094;8.748;2024-03-06T02:08:46;14.85;;;7.63;;
72557;SDS011;60583;50.094;8.748;2024-03-06T02:11:30;11.00;;;6.28;;
72557;SDS011;60583;50.094;8.748;2024-03-06T02:14:14;10.80;;;6.60;;
72557;SDS011;60583;50.094;8.748;2024-03-06T02:16:58;12.20;;;6.63;;
72557;SDS011;60583;50.094;8.748;2024-03-06T02:19:43;11.43;;;6.35;;
72557;SDS011;60583;50.094;8.748;2024-03-06T02:22:27;12.18;;;7.82;;
72557;SDS011;60583;50.094;8.748;2024-03-06T02:25:12;14.00;;;8.10;;
72557;SDS011;60583;50.094;8.748;2024-03-06T02:27:56;31.52;;;17.05;;
72557;SDS011;60583;50.094;8.748;2024-03-06T02:30:40;26.65;;;15.35;;
72557;SDS011;60583;50.094;8.748;2024-03-06T02:33:25;15.23;;;9.95;;
72557;SDS011;60583;50.094;8.748;2024-03-06T02:36:09;12.40;;;7.63;;
72557;SDS011;60583;50.094;8.748;2024-03-06T02:38:53;14.50;;;7.97;;
72557;SDS011;60583;50.094;8.748;2024-03-06T02:41:37;10.57;;;6.88;;
72557;SDS011;60583;50.094;8.748;2024-03-06T02:44:21;10.75;;;6.85;;
72557;SDS011;60583;50.094;8.748;2024-03-06T02:47:05;10.65;;;6.40;;
72557;SDS011;60583;50.094;8.748;2024-03-06T02:49:49;9.82;;;6.07;;
72557;SDS011;60583;50.094;8.748;2024-03-06T02:52:33;11.77;;;6.57;;
72557;SDS011;60583;50.094;8.748;2024-03-06T02:55:17;11.02;;;6.45;;
72557;SDS011;60583;50.094;8.748;2024-03-06T02:58:04;11.32;;;6.97;;
72557;SDS011;60583;50.094;8.748;2024-03-06T03:00:48;11.13;;;6.75;;
72557;SDS011;60583;50.094;8.748;2024-03-06T03:03:32;12.20;;;7.30;;
72557;SDS011;60583;50.094;8.748;2024-03-06T03:06:16;11.20;;;6.95;;
72557;SDS011;60583;50.094;8.748;2024-03-06T03:09:00;12.07;;;7.30;;
72557;SDS011;60583;50.094;8.748;2024-03-06T03:11:44;12.25;;;6.45;;
72557;SDS011;60583;50.094;8.748;2024-03-06T03:14:28;12.98;;;6.43;;
72557;SDS011;60583;50.094;8.748;2024-03-06T03:17:12;13.75;;;6.72;;
72557;SDS011;60583;50.094;8.748;2024-03-06T03:19:56;11.30;;;6.38;;
72557;SDS011;60583;50.094;8.748;2024-03-06T03:22:40;11.70;;;6.43;;
72557;SDS011;60583;50.094;8.748;2024-03-06T03:25:24;12.48;;;7.07;;
72557;SDS011;60583;50.094;8.748;2024-03-06T03:28:08;11.25;;;7.00;;
72557;SDS011;60583;50.094;8.748;2024-03-06T03:30:53;11.70;;;6.38;;
72557;SDS011;60583;50.094;8.748;2024-03-06T03:33:40;11.27;;;7.30;;
72557;SDS011;60583;50.094;8.748;2024-03-06T03:36:25;12.35;;;7.30;;
72557;SDS011;60583;50.094;8.748;2024-03-06T03:39:10;12.77;;;7.15;;
72557;SDS011;60583;50.094;8.748;2024-03-06T03:42:00;12.85;;;7.40;;
72557;SDS011;60583;50.094;8.748;2024-03-06T03:44:44;11.73;;;7.00;;
72557;SDS011;60583;50.094;8.748;2024-03-06T03:47:28;14.63;;;7.65;;
72557;SDS011;60583;50.094;8.748;2024-03-06T03:50:12;12.77;;;6.75;;
72557;SDS011;60583;50.094;8.748;2024-03-06T03:52:57;11.73;;;6.78;;
72557;SDS011;60583;50.094;8.748;2024-03-06T03:55:47;12.45;;;8.20;;
72557;SDS011;60583;50.094;8.748;2024-03-06T03:58:31;12.00;;;7.78;;
72557;SDS011;60583;50.094;8.748;2024-03-06T04:01:15;11.95;;;6.85;;
72557;SDS011;60583;50.094;8.748;2024-03-06T04:03:59;12.30;;;7.47;;
72557;SDS011;60583;50.094;8.748;2024-03-06T04:06:43;13.90;;;8.05;;
72557;SDS011;60583;50.094;8.748;2024-03-06T04:09:27;13.93;;;8.10;;
72557;SDS011;60583;50.094;8.748;2024-03-06T04:12:11;12.90;;;8.50;;
72557;SDS011;60583;50.094;8.748;2024-03-06T04:14:55;12.85;;;7.00;;
72557;SDS011;60583;50.094;8.748;2024-03-06T04:17:39;12.38;;;7.38;;
72557;SDS011;60583;50.094;8.748;2024-03-06T04:20:24;11.75;;;7.72;;
72557;SDS011;60583;50.094;8.748;2024-03-06T04:23:08;12.30;;;7.53;;
72557;SDS011;60583;50.094;8.748;2024-03-06T04:25:52;10.70;;;6.82;;
72557;SDS011;60583;50.094;8.748;2024-03-06T04:28:36;13.27;;;8.05;;
72557;SDS011;60583;50.094;8.748;2024-03-06T04:31:20;13.02;;;7.95;;
72557;SDS011;60583;50.094;8.748;2024-03-06T04:34:04;11.70;;;8.18;;
72557;SDS011;60583;50.094;8.748;2024-03-06T04:36:49;12.57;;;7.45;;
72557;SDS011;60583;50.094;8.748;2024-03-06T04:39:33;13.50;;;8.80;;
72557;SDS011;60583;50.094;8.748;2024-03-06T04:42:17;14.48;;;9.13;;
72557;SDS011;60583;50.094;8.748;2024-03-06T04:45:11;14.05;;;9.40;;
72557;SDS011;60583;50.094;8.748;2024-03-06T04:47:56;14.02;;;9.20;;
72557;SDS011;60583;50.094;8.748;2024-03-06T04:50:40;15.48;;;8.57;;
72557;SDS011;60583;50.094;8.748;2024-03-06T04:53:24;15.38;;;8.25;;
72557;SDS011;60583;50.094;8.748;2024-03-06T04:56:08;13.77;;;7.88;;
72557;SDS011;60583;50.094;8.748;2024-03-06T04:58:52;13.63;;;7.45;;
72557;SDS011;60583;50.094;8.748;2024-03-06T05:01:37;14.27;;;8.00;;
72557;SDS011;60583;50.094;8.748;2024-03-06T05:04:21;13.55;;;7.90;;
72557;SDS011;60583;50.094;8.748;2024-03-06T05:07:05;13.20;;;7.90;;
72557;SDS011;60583;50.094;8.748;2024-03-06T05:09:49;14.95;;;9.02;;
72557;SDS011;60583;50.094;8.748;2024-03-06T05:12:33;14.38;;;9.23;;
72557;SDS011;60583;50.094;8.748;2024-03-06T05:15:18;15.65;;;8.85;;
72557;SDS011;60583;50.094;8.748;2024-03-06T05:18:03;15.90;;;8.60;;
72557;SDS011;60583;50.094;8.748;2024-03-06T05:20:47;14.45;;;9.40;;
72557;SDS011;60583;50.094;8.748;2024-03-06T05:23:31;18.13;;;9.82;;
72557;SDS011;60583;50.094;8.748;2024-03-06T05:26:15;15.25;;;9.02;;
72557;SDS011;60583;50.094;8.748;2024-03-06T05:29:00;14.60;;;9.18;;
72557;SDS011;60583;50.094;8.748;2024-03-06T05:31:44;15.30;;;9.10;;
72557;SDS011;60583;50.094;8.748;2024-03-06T05:34:28;14.13;;;7.68;;
72557;SDS011;60583;50.094;8.748;2024-03-06T05:37:12;14.77;;;9.02;;
72557;SDS011;60583;50.094;8.748;2024-03-06T05:39:56;14.98;;;9.68;;
72557;SDS011;60583;50.094;8.748;2024-03-06T05:42:40;16.30;;;8.95;;
72557;SDS011;60583;50.094;8.748;2024-03-06T05:45:26;16.23;;;8.98;;
72557;SDS011;60583;50.094;8.748;2024-03-06T05:48:10;14.15;;;9.30;;
72557;SDS011;60583;50.094;8.748;2024-03-06T05:50:54;16.30;;;9.05;;
72557;SDS011;60583;50.094;8.748;2024-03-06T05:53:38;15.05;;;8.90;;
72557;SDS011;60583;50.094;8.748;2024-03-06T05:56:24;15.52;;;9.85;;
72557;SDS011;60583;50.094;8.748;2024-03-06T05:59:07;15.50;;;9.30;;
72557;SDS011;60583;50.094;8.748;2024-03-06T06:01:51;15.70;;;9.50;;
72557;SDS011;60583;50.094;8.748;2024-03-06T06:04:35;16.38;;;9.88;;
72557;SDS011;60583;50.094;8.748;2024-03-06T06:07:19;14.82;;;9.50;;
72557;SDS011;60583;50.094;8.748;2024-03-06T06:10:04;14.80;;;8.75;;
72557;SDS011;60583;50.094;8.748;2024-03-06T06:12:52;13.35;;;7.85;;
72557;SDS011;60583;50.094;8.748;2024-03-06T06:15:36;14.65;;;8.75;;
72557;SDS011;60583;50.094;8.748;2024-03-06T06:18:20;14.25;;;9.32;;
72557;SDS011;60583;50.094;8.748;2024-03-06T06:21:04;14.68;;;8.43;;
72557;SDS011;60583;50.094;8.748;2024-03-06T06:23:51;15.02;;;9.13;;
72557;SDS011;60583;50.094;8.748;2024-03-06T06:26:35;14.13;;;8.52;;
72557;SDS011;60583;50.094;8.748;2024-03-06T06:29:19;16.05;;;8.70;;
72557;SDS011;60583;50.094;8.748;2024-03-06T06:32:03;16.77;;;9.55;;
72557;SDS011;60583;50.094;8.748;2024-03-06T06:34:47;13.85;;;9.00;;
72557;SDS011;60583;50.094;8.748;2024-03-06T06:37:31;14.95;;;8.55;;
72557;SDS011;60583;50.094;8.748;2024-03-06T06:40:15;14.38;;;8.07;;
72557;SDS011;60583;50.094;8.748;2024-03-06T06:42:59;15.63;;;9.35;;
72557;SDS011;60583;50.094;8.748;2024-03-06T06:45:43;15.10;;;10.05;;
72557;SDS011;60583;50.094;8.748;2024-03-06T06:48:28;14.60;;;9.35;;
72557;SDS011;60583;50.094;8.748;2024-03-06T06:51:11;17.30;;;9.60;;
72557;SDS011;60583;50.094;8.748;2024-03-06T06:53:56;14.75;;;9.48;;
72557;SDS011;60583;50.094;8.748;2024-03-06T06:56:39;14.98;;;8.48;;
72557;SDS011;60583;50.094;8.748;2024-03-06T06:59:24;19.58;;;9.65;;
72557;SDS011;60583;50.094;8.748;2024-03-06T07:02:07;14.23;;;9.68;;
72557;SDS011;60583;50.094;8.748;2024-03-06T07:04:52;16.45;;;9.65;;
72557;SDS011;60583;50.094;8.748;2024-03-06T07:07:36;14.95;;;8.70;;
72557;SDS011;60583;50.094;8.748;2024-03-06T07:10:21;13.95;;;9.90;;
72557;SDS011;60583;50.094;8.748;2024-03-06T07:13:05;15.80;;;9.98;;
72557;SDS011;60583;50.094;8.748;2024-03-06T07:15:50;17.38;;;9.90;;
72557;SDS011;60583;50.094;8.748;2024-03-06T07:18:34;16.48;;;9.55;;
72557;SDS011;60583;50.094;8.748;2024-03-06T07:21:18;17.25;;;11.10;;
72557;SDS011;60583;50.094;8.748;2024-03-06T07:24:02;16.55;;;9.48;;
72557;SDS011;60583;50.094;8.748;2024-03-06T07:26:47;16.33;;;9.20;;
72557;SDS011;60583;50.094;8.748;2024-03-06T07:29:31;14.73;;;8.82;;
72557;SDS011;60583;50.094;8.748;2024-03-06T07:32:15;18.27;;;9.27;;
72557;SDS011;60583;50.094;8.748;2024-03-06T07:34:59;15.75;;;10.05;;
72557;SDS011;60583;50.094;8.748;2024-03-06T07:37:43;15.35;;;9.43;;
72557;SDS011;60583;50.094;8.748;2024-03-06T07:40:28;18.30;;;11.23;;
72557;SDS011;60583;50.094;8.748;2024-03-06T07:43:12;16.85;;;9.82;;
72557;SDS011;60583;50.094;8.748;2024-03-06T07:45:57;21.08;;;11.35;;
72557;SDS011;60583;50.094;8.748;2024-03-06T07:48:42;16.63;;;10.52;;
72557;SDS011;60583;50.094;8.748;2024-03-06T07:51:27;17.70;;;10.25;;
72557;SDS011;60583;50.094;8.748;2024-03-06T07:54:11;18.20;;;12.35;;
72557;SDS011;60583;50.094;8.748;2024-03-06T07:56:55;15.75;;;10.30;;
72557;SDS011;60583;50.094;8.748;2024-03-06T07:59:39;18.98;;;10.45;;
72557;SDS011;60583;50.094;8.748;2024-03-06T08:02:23;16.75;;;10.55;;
72557;SDS011;60583;50.094;8.748;2024-03-06T08:05:08;18.65;;;11.60;;
72557;SDS011;60583;50.094;8.748;2024-03-06T08:07:58;17.95;;;10.48;;
72557;SDS011;60583;50.094;8.748;2024-03-06T08:10:42;19.70;;;11.20;;
72557;SDS011;60583;50.094;8.748;2024-03-06T08:13:28;20.48;;;12.25;;
72557;SDS011;60583;50.094;8.748;2024-03-06T08:16:13;21.48;;;10.85;;
72557;SDS011;60583;50.094;8.748;2024-03-06T08:18:56;21.75;;;14.05;;
72557;SDS011;60583;50.094;8.748;2024-03-06T08:21:43;20.83;;;12.50;;
72557;SDS011;60583;50.094;8.748;2024-03-06T08:24:26;22.98;;;13.77;;
72557;SDS011;60583;50.094;8.748;2024-03-06T08:27:11;21.10;;;11.90;;
72557;SDS011;60583;50.094;8.748;2024-03-06T08:29:54;20.98;;;12.93;;
72557;SDS011;60583;50.094;8.748;2024-03-06T08:32:38;19.08;;;11.80;;
72557;SDS011;60583;50.094;8.748;2024-03-06T08:35:22;22.13;;;12.55;;
72557;SDS011;60583;50.094;8.748;2024-03-06T08:38:10;22.40;;;12.95;;
72557;SDS011;60583;50.094;8.748;2024-03-06T08:40:54;20.85;;;12.25;;
72557;SDS011;60583;50.094;8.748;2024-03-06T08:43:38;24.58;;;14.43;;
72557;SDS011;60583;50.094;8.748;2024-03-06T08:46:22;26.50;;;14.50;;
72557;SDS011;60583;50.094;8.748;2024-03-06T08:49:07;25.05;;;15.15;;
72557;SDS011;60583;50.094;8.748;2024-03-06T08:51:51;24.77;;;13.43;;
72557;SDS011;60583;50.094;8.748;2024-03-06T08:54:35;23.90;;;12.65;;
72557;SDS011;60583;50.094;8.748;2024-03-06T08:57:19;21.52;;;12.52;;
72557;SDS011;60583;50.094;8.748;2024-03-06T09:00:06;24.15;;;13.95;;
72557;SDS011;60583;50.094;8.748;2024-03-06T09:02:54;22.08;;;13.05;;
72557;SDS011;60583;50.094;8.748;2024-03-06T09:05:38;22.90;;;13.77;;
72557;SDS011;60583;50.094;8.748;2024-03-06T09:08:22;26.35;;;14.07;;
72557;SDS011;60583;50.094;8.748;2024-03-06T09:11:06;25.63;;;13.60;;
72557;SDS011;60583;50.094;8.748;2024-03-06T09:13:50;28.20;;;14.55;;
72557;SDS011;60583;50.094;8.748;2024-03-06T09:16:35;22.60;;;11.93;;
72557;SDS011;60583;50.094;8.748;2024-03-06T09:19:19;25.40;;;13.93;;
72557;SDS011;60583;50.094;8.748;2024-03-06T09:22:03;24.00;;;13.10;;
72557;SDS011;60583;50.094;8.748;2024-03-06T09:24:47;24.92;;;12.32;;
72557;SDS011;60583;50.094;8.748;2024-03-06T09:27:31;28.35;;;13.50;;
72557;SDS011;60583;50.094;8.748;2024-03-06T09:30:16;26.33;;;13.45;;
72557;SDS011;60583;50.094;8.748;2024-03-06T09:33:00;25.67;;;13.05;;
72557;SDS011;60583;50.094;8.748;2024-03-06T09:35:44;27.15;;;13.25;;
72557;SDS011;60583;50.094;8.748;2024-03-06T09:38:29;26.08;;;12.98;;
72557;SDS011;60583;50.094;8.748;2024-03-06T09:41:13;25.08;;;13.95;;
72557;SDS011;60583;50.094;8.748;2024-03-06T09:43:58;25.55;;;13.18;;
72557;SDS011;60583;50.094;8.748;2024-03-06T09:46:44;28.55;;;14.23;;
72557;SDS011;60583;50.094;8.748;2024-03-06T09:49:29;25.45;;;12.63;;
72557;SDS011;60583;50.094;8.748;2024-03-06T09:52:14;33.92;;;16.08;;
72557;SDS011;60583;50.094;8.748;2024-03-06T09:54:58;27.80;;;14.80;;
72557;SDS011;60583;50.094;8.748;2024-03-06T09:57:43;27.15;;;14.13;;
72557;SDS011;60583;50.094;8.748;2024-03-06T10:00:27;28.67;;;14.43;;
72557;SDS011;60583;50.094;8.748;2024-03-06T10:03:12;29.88;;;14.65;;
72557;SDS011;60583;50.094;8.748;2024-03-06T10:05:57;26.88;;;13.13;;
72557;SDS011;60583;50.094;8.748;2024-03-06T10:08:41;28.08;;;13.68;;
72557;SDS011;60583;50.094;8.748;2024-03-06T10:11:26;26.08;;;13.23;;
72557;SDS011;60583;50.094;8.748;2024-03-06T10:14:10;25.45;;;13.05;;
72557;SDS011;60583;50.094;8.748;2024-03-06T10:16:55;28.67;;;13.82;;
72557;SDS011;60583;50.094;8.748;2024-03-06T10:19:40;28.65;;;13.38;;
72557;SDS011;60583;50.094;8.748;2024-03-06T10:22:29;27.23;;;13.10;;
72557;SDS011;60583;50.094;8.748;2024-03-06T10:25:13;26.77;;;13.88;;
72557;SDS011;60583;50.094;8.748;2024-03-06T10:30:49;26.08;;;14.15;;
72557;SDS011;60583;50.094;8.748;2024-03-06T10:33:34;25.98;;;12.40;;
72557;SDS011;60583;50.094;8.748;2024-03-06T10:36:18;24.50;;;12.75;;
72557;SDS011;60583;50.094;8.748;2024-03-06T10:39:02;20.85;;;11.68;;
72557;SDS011;60583;50.094;8.748;2024-03-06T10:41:46;21.65;;;11.07;;
72557;SDS011;60583;50.094;8.748;2024-03-06T10:44:38;20.23;;;12.02;;
72557;SDS011;60583;50.094;8.748;2024-03-06T10:47:32;21.60;;;12.65;;
72557;SDS011;60583;50.094;8.748;2024-03-06T10:50:16;19.23;;;11.32;;
72557;SDS011;60583;50.094;8.748;2024-03-06T10:53:02;19.70;;;12.45;;
72557;SDS011;60583;50.094;8.748;2024-03-06T10:55:47;21.67;;;14.25;;
72557;SDS011;60583;50.094;8.748;2024-03-06T10:58:33;21.13;;;13.18;;
72557;SDS011;60583;50.094;8.748;2024-03-06T11:01:17;21.23;;;12.82;;
72557;SDS011;60583;50.094;8.748;2024-03-06T11:04:02;20.63;;;13.20;;
72557;SDS011;60583;50.094;8.748;2024-03-06T11:06:47;19.88;;;12.07;;
72557;SDS011;60583;50.094;8.748;2024-03-06T11:09:34;19.40;;;12.18;;
72557;SDS011;60583;50.094;8.748;2024-03-06T11:12:38;18.38;;;11.30;;
72557;SDS011;60583;50.094;8.748;2024-03-06T11:15:22;19.67;;;11.25;;
72557;SDS011;60583;50.094;8.748;2024-03-06T11:24:12;19.40;;;12.38;;
72557;SDS011;60583;50.094;8.748;2024-03-06T11:27:03;18.88;;;11.98;;
72557;SDS011;60583;50.094;8.748;2024-03-06T11:33:00;20.23;;;11.77;;
72557;SDS011;60583;50.094;8.748;2024-03-06T11:39:04;21.95;;;11.95;;
72557;SDS011;60583;50.094;8.748;2024-03-06T11:41:50;20.08;;;11.05;;
72557;SDS011;60583;50.094;8.748;2024-03-06T11:44:34;20.05;;;11.82;;
72557;SDS011;60583;50.094;8.748;2024-03-06T11:47:19;21.83;;;11.60;;
72557;SDS011;60583;50.094;8.748;2024-03-06T11:50:03;20.20;;;10.68;;
72557;SDS011;60583;50.094;8.748;2024-03-06T11:52:52;20.38;;;11.68;;
72557;SDS011;60583;50.094;8.748;2024-03-06T11:55:39;18.75;;;10.00;;
72557;SDS011;60583;50.094;8.748;2024-03-06T11:58:23;18.63;;;9.05;;
72557;SDS011;60583;50.094;8.748;2024-03-06T12:01:07;16.60;;;10.07;;
72557;SDS011;60583;50.094;8.748;2024-03-06T12:03:52;19.75;;;11.02;;
72557;SDS011;60583;50.094;8.748;2024-03-06T12:06:36;19.30;;;10.70;;
72557;SDS011;60583;50.094;8.748;2024-03-06T12:09:21;18.45;;;11.10;;
72557;SDS011;60583;50.094;8.748;2024-03-06T12:12:05;19.17;;;10.35;;
72557;SDS011;60583;50.094;8.748;2024-03-06T12:14:57;19.75;;;10.20;;
72557;SDS011;60583;50.094;8.748;2024-03-06T12:17:43;19.80;;;10.35;;
72557;SDS011;60583;50.094;8.748;2024-03-06T12:20:32;21.05;;;10.30;;
72557;SDS011;60583;50.094;8.748;2024-03-06T12:23:20;20.73;;;12.13;;
72557;SDS011;60583;50.094;8.748;2024-03-06T12:26:06;19.77;;;9.75;;
72557;SDS011;60583;50.094;8.748;2024-03-06T12:28:52;19.80;;;10.32;;
72557;SDS011;60583;50.094;8.748;2024-03-06T12:31:47;19.80;;;11.25;;
72557;SDS011;60583;50.094;8.748;2024-03-06T12:34:31;19.90;;;10.40;;
72557;SDS011;60583;50.094;8.748;2024-03-06T12:37:15;19.83;;;11.02;;
72557;SDS011;60583;50.094;8.748;2024-03-06T12:39:59;19.55;;;9.57;;
72557;SDS011;60583;50.094;8.748;2024-03-06T12:42:43;19.70;;;9.60;;
72557;SDS011;60583;50.094;8.748;2024-03-06T12:45:29;18.92;;;9.43;;
72557;SDS011;60583;50.094;8.748;2024-03-06T12:48:13;20.05;;;10.48;;
72557;SDS011;60583;50.094;8.748;2024-03-06T12:50:57;20.42;;;9.52;;
72557;SDS011;60583;50.094;8.748;2024-03-06T12:53:48;21.58;;;9.88;;
72557;SDS011;60583;50.094;8.748;2024-03-06T12:56:32;18.88;;;9.27;;
72557;SDS011;60583;50.094;8.748;2024-03-06T12:59:16;21.92;;;11.20;;
72557;SDS011;60583;50.094;8.748;2024-03-06T13:02:00;21.77;;;10.23;;
72557;SDS011;60583;50.094;8.748;2024-03-06T13:04:44;20.65;;;10.57;;
72557;SDS011;60583;50.094;8.748;2024-03-06T13:07:28;18.23;;;10.07;;
72557;SDS011;60583;50.094;8.748;2024-03-06T13:10:15;18.63;;;10.23;;
72557;SDS011;60583;50.094;8.748;2024-03-06T13:12:59;19.08;;;9.75;;
72557;SDS011;60583;50.094;8.748;2024-03-06T13:15:43;19.40;;;9.50;;
72557;SDS011;60583;50.094;8.748;2024-03-06T13:18:28;18.25;;;8.52;;
72557;SDS011;60583;50.094;8.748;2024-03-06T13:21:12;19.52;;;10.18;;
72557;SDS011;60583;50.094;8.748;2024-03-06T13:23:56;20.35;;;10.35;;
72557;SDS011;60583;50.094;8.748;2024-03-06T13:26:40;17.92;;;9.13;;
72557;SDS011;60583;50.094;8.748;2024-03-06T13:29:24;19.13;;;9.32;;
72557;SDS011;60583;50.094;8.748;2024-03-06T13:32:08;16.35;;;8.50;;
72557;SDS011;60583;50.094;8.748;2024-03-06T13:34:52;17.20;;;9.25;;
72557;SDS011;60583;50.094;8.748;2024-03-06T13:37:36;15.75;;;8.55;;
72557;SDS011;60583;50.094;8.748;2024-03-06T13:40:20;15.85;;;7.97;;
72557;SDS011;60583;50.094;8.748;2024-03-06T13:43:04;15.75;;;8.10;;
72557;SDS011;60583;50.094;8.748;2024-03-06T13:45:49;14.73;;;7.65;;
72557;SDS011;60583;50.094;8.748;2024-03-06T13:48:34;17.00;;;7.97;;
72557;SDS011;60583;50.094;8.748;2024-03-06T13:51:19;15.50;;;8.32;;
72557;SDS011;60583;50.094;8.748;2024-03-06T13:54:03;17.92;;;8.68;;
72557;SDS011;60583;50.094;8.748;2024-03-06T13:56:47;18.25;;;8.55;;
72557;SDS011;60583;50.094;8.748;2024-03-06T13:59:31;18.50;;;9.50;;
72557;SDS011;60583;50.094;8.748;2024-03-06T14:02:16;18.80;;;8.77;;
72557;SDS011;60583;50.094;8.748;2024-03-06T14:05:00;21.05;;;10.27;;
72557;SDS011;60583;50.094;8.748;2024-03-06T14:07:44;18.55;;;9.30;;
72557;SDS011;60583;50.094;8.748;2024-03-06T14:10:27;20.08;;;9.77;;
72557;SDS011;60583;50.094;8.748;2024-03-06T14:13:14;19.95;;;9.45;;
72557;SDS011;60583;50.094;8.748;2024-03-06T14:15:57;16.88;;;9.07;;
72557;SDS011;60583;50.094;8.748;2024-03-06T14:18:44;15.73;;;8.23;;
72557;SDS011;60583;50.094;8.748;2024-03-06T14:21:28;16.73;;;8.60;;
72557;SDS011;60583;50.094;8.748;2024-03-06T14:24:12;15.50;;;7.57;;
72557;SDS011;60583;50.094;8.748;2024-03-06T14:26:56;14.82;;;8.20;;
72557;SDS011;60583;50.094;8.748;2024-03-06T14:29:40;18.58;;;9.38;;
72557;SDS011;60583;50.094;8.748;2024-03-06T14:32:24;20.08;;;10.75;;
72557;SDS011;60583;50.094;8.748;2024-03-06T14:35:09;18.48;;;8.60;;
72557;SDS011;60583;50.094;8.748;2024-03-06T14:37:53;20.35;;;10.38;;
72557;SDS011;60583;50.094;8.748;2024-03-06T14:40:37;19.10;;;9.63;;
72557;SDS011;60583;50.094;8.748;2024-03-06T14:43:21;18.85;;;9.68;;
72557;SDS011;60583;50.094;8.748;2024-03-06T14:46:05;16.88;;;8.63;;
72557;SDS011;60583;50.094;8.748;2024-03-06T14:48:49;18.05;;;9.35;;
72557;SDS011;60583;50.094;8.748;2024-03-06T14:51:33;18.05;;;9.30;;
72557;SDS011;60583;50.094;8.748;2024-03-06T14:54:17;17.08;;;8.43;;
72557;SDS011;60583;50.094;8.748;2024-03-06T14:57:01;18.42;;;9.13;;
72557;SDS011;60583;50.094;8.748;2024-03-06T14:59:45;18.85;;;9.52;;
72557;SDS011;60583;50.094;8.748;2024-03-06T15:02:29;18.38;;;8.82;;
72557;SDS011;60583;50.094;8.748;2024-03-06T15:05:13;17.70;;;9.40;;
72557;SDS011;60583;50.094;8.748;2024-03-06T15:07:57;19.20;;;9.20;;
72557;SDS011;60583;50.094;8.748;2024-03-06T15:10:42;18.80;;;8.55;;
72557;SDS011;60583;50.094;8.748;2024-03-06T15:13:26;16.73;;;9.07;;
72557;SDS011;60583;50.094;8.748;2024-03-06T15:16:10;16.73;;;8.68;;
72557;SDS011;60583;50.094;8.748;2024-03-06T15:18:54;17.52;;;9.07;;
72557;SDS011;60583;50.094;8.748;2024-03-06T15:21:40;16.42;;;9.48;;
72557;SDS011;60583;50.094;8.748;2024-03-06T15:24:24;16.90;;;9.68;;
72557;SDS011;60583;50.094;8.748;2024-03-06T15:27:08;15.88;;;8.98;;
72557;SDS011;60583;50.094;8.748;2024-03-06T15:29:52;18.05;;;9.32;;
72557;SDS011;60583;50.094;8.748;2024-03-06T15:32:36;18.77;;;8.90;;
72557;SDS011;60583;50.094;8.748;2024-03-06T15:35:21;18.58;;;9.07;;
72557;SDS011;60583;50.094;8.748;2024-03-06T15:38:06;16.73;;;8.85;;
72557;SDS011;60583;50.094;8.748;2024-03-06T15:40:50;18.98;;;9.05;;
72557;SDS011;60583;50.094;8.748;2024-03-06T15:43:38;16.85;;;8.63;;
72557;SDS011;60583;50.094;8.748;2024-03-06T15:46:22;17.42;;;8.95;;
72557;SDS011;60583;50.094;8.748;2024-03-06T15:49:07;18.80;;;8.43;;
72557;SDS011;60583;50.094;8.748;2024-03-06T15:52:08;18.52;;;9.80;;
72557;SDS011;60583;50.094;8.748;2024-03-06T15:54:52;17.88;;;8.98;;
72557;SDS011;60583;50.094;8.748;2024-03-06T15:57:36;18.30;;;9.05;;
72557;SDS011;60583;50.094;8.748;2024-03-06T16:00:21;19.13;;;10.02;;
72557;SDS011;60583;50.094;8.748;2024-03-06T16:03:05;18.13;;;9.73;;
72557;SDS011;60583;50.094;8.748;2024-03-06T16:05:49;18.85;;;8.73;;
72557;SDS011;60583;50.094;8.748;2024-03-06T16:08:36;20.17;;;9.93;;
72557;SDS011;60583;50.094;8.748;2024-03-06T16:11:20;18.85;;;10.48;;
72557;SDS011;60583;50.094;8.748;2024-03-06T16:14:04;18.73;;;9.40;;
72557;SDS011;60583;50.094;8.748;2024-03-06T16:16:48;19.92;;;10.05;;
72557;SDS011;60583;50.094;8.748;2024-03-06T16:19:32;22.17;;;9.52;;
72557;SDS011;60583;50.094;8.748;2024-03-06T16:22:17;19.73;;;9.80;;
72557;SDS011;60583;50.094;8.748;2024-03-06T16:25:01;17.50;;;9.18;;
72557;SDS011;60583;50.094;8.748;2024-03-06T16:27:45;18.02;;;9.73;;
72557;SDS011;60583;50.094;8.748;2024-03-06T16:30:29;21.30;;;10.27;;